Time;durP1;ratioP1;P1;durP2;ratioP2;P2;SDS_P1;SDS_P2;PMS_P1;PMS_P2;Temp;Humidity;BMP_temperature;BMP_pressure;BME280_temperature;BME280_humidity;BME280_pressure;Samples;Min_cycle;Max_cycle;Signal;HPM_P1;HPM_P2
2022/06/07 00:00:25;;;;;;;42.70;30.20;;;;;;;36.31;46.48;101201.31;5073028;28;20417;-76
2022/06/07 00:03:02;;;;;;;48.07;30.70;;;;;;;36.40;45.93;101204.22;5073688;28;20829;-76
2022/06/07 00:05:31;;;;;;;43.90;30.43;;;;;;;36.48;45.92;101210.88;5073257;28;20460;-75
2022/06/07 00:08:05;;;;;;;43.93;34.40;;;;;;;36.59;45.88;101212.38;5073480;28;20516;-77
2022/06/07 00:10:37;;;;;;;47.93;35.70;;;;;;;36.65;45.42;101215.81;5073263;28;20455;-75
2022/06/07 00:13:21;;;;;;;53.60;31.43;;;;;;;36.63;45.75;101213.41;5073308;28;20476;-75
2022/06/07 00:15:52;;;;;;;51.77;33.00;;;;;;;36.64;45.49;101208.78;5073115;28;20416;-75
2022/06/07 00:18:36;;;;;;;38.77;30.00;;;;;;;36.64;45.73;101203.38;5073168;28;20421;-77
2022/06/07 00:21:20;;;;;;;42.63;30.67;;;;;;;36.64;45.96;101203.38;5072366;28;20432;-75
2022/06/07 00:23:59;;;;;;;51.70;32.37;;;;;;;36.56;45.75;101200.22;5070499;28;20414;-77
2022/06/07 00:26:42;;;;;;;43.93;31.27;;;;;;;36.57;45.42;101204.53;5047118;28;20965;-77
2022/06/07 00:29:14;;;;;;;43.40;30.43;;;;;;;36.56;45.72;101202.13;5072827;28;20449;-77
2022/06/07 00:31:44;;;;;;;45.37;31.60;;;;;;;36.56;46.28;101199.44;5072650;28;20546;-75
2022/06/07 00:34:26;;;;;;;47.13;33.93;;;;;;;36.65;45.43;101205.00;5072873;28;20418;-74
2022/06/07 00:36:59;;;;;;;49.80;34.93;;;;;;;36.65;45.71;101205.00;5072374;28;20437;-75
2022/06/07 00:39:49;;;;;;;43.00;34.13;;;;;;;36.62;45.74;101190.16;5072293;28;20418;-75
2022/06/07 00:42:31;;;;;;;46.50;36.50;;;;;;;36.70;45.37;101199.53;5072838;28;20453;-77
2022/06/07 00:45:04;;;;;;;44.27;34.70;;;;;;;36.74;45.40;101197.88;5071923;28;20441;-77
2022/06/07 00:48:06;;;;;;;52.77;39.43;;;;;;;36.66;45.58;101185.00;5072778;28;20427;-75
2022/06/07 00:50:58;;;;;;;50.50;35.50;;;;;;;36.65;45.59;101194.19;5072436;28;20425;-77
2022/06/07 00:53:34;;;;;;;56.20;42.43;;;;;;;36.63;45.92;101193.69;5069351;28;20481;-77
2022/06/07 00:56:15;;;;;;;52.77;40.97;;;;;;;36.53;45.96;101187.31;5073148;28;20420;-77
2022/06/07 00:59:00;;;;;;;;;;;;;;;;;;;;;
2022/06/07 01:01:53;;;;;;;66.83;40.00;;;;;;;36.57;45.55;101172.13;5073935;28;20428;-77
2022/06/07 01:04:30;;;;;;;63.20;40.27;;;;;;;36.54;45.78;101169.19;5073804;28;20758;-75
2022/06/07 01:13:04;;;;;;;45.50;39.93;;;;;;;36.51;45.68;101173.28;5073445;28;20452;-77
2022/06/07 01:15:39;;;;;;;53.50;42.03;;;;;;;36.56;45.66;101175.09;5071842;28;20414;-77
2022/06/07 01:18:07;;;;;;;57.03;42.20;;;;;;;36.48;45.60;101171.16;5056686;28;20936;-75
2022/06/07 01:20:39;;;;;;;50.43;42.00;;;;;;;36.50;45.51;101168.97;5061126;28;21019;-77
2022/06/07 01:23:10;;;;;;;57.77;43.60;;;;;;;36.45;46.07;101162.81;5072024;28;20932;-75
2022/06/07 01:25:59;;;;;;;61.90;42.27;;;;;;;36.33;46.72;101165.88;5071828;28;20429;-75
2022/06/07 01:28:28;;;;;;;46.93;41.00;;;;;;;36.42;46.25;101169.63;5070039;28;20476;-74
2022/06/07 01:30:59;;;;;;;52.30;40.37;;;;;;;36.55;45.83;101168.91;5057687;28;20426;-77
2022/06/07 01:33:25;;;;;;;50.20;41.67;;;;;;;36.63;45.58;101175.56;5070500;28;20542;-77
2022/06/07 01:36:12;;;;;;;44.87;39.70;;;;;;;36.65;45.57;101172.56;5057784;28;20929;-77
2022/06/07 01:41:58;;;;;;;66.13;44.80;;;;;;;36.65;45.62;101173.41;5043940;28;20487;-77
2022/06/07 01:44:39;;;;;;;58.20;41.10;;;;;;;36.66;45.01;101171.50;5071531;28;20486;-76
2022/06/07 01:47:09;;;;;;;57.30;48.70;;;;;;;36.52;45.63;101171.38;5070175;28;20437;-76
2022/06/07 01:49:44;;;;;;;62.00;43.00;;;;;;;36.48;45.39;101171.16;5059668;28;20924;-77
2022/06/07 01:52:18;;;;;;;55.13;42.50;;;;;;;36.46;45.46;101177.94;5065309;28;20548;-75
2022/06/07 01:54:53;;;;;;;52.77;42.90;;;;;;;36.38;46.29;101182.03;5063690;28;20479;-75
2022/06/07 01:57:45;;;;;;;58.00;43.80;;;;;;;36.37;46.19;101176.94;5043018;28;20798;-76
2022/06/07 02:00:15;;;;;;;58.40;46.50;;;;;;;36.28;46.41;101168.66;5071208;28;20441;-75
2022/06/07 02:02:50;;;;;;;60.83;45.80;;;;;;;35.97;46.94;101185.19;5071354;28;20421;-75
2022/06/07 02:05:22;;;;;;;64.60;50.10;;;;;;;35.67;47.46;101169.25;5071265;28;20456;-76
2022/06/07 02:08:10;;;;;;;52.00;43.87;;;;;;;35.64;47.42;101169.78;5070533;28;20410;-75
2022/06/07 02:10:49;;;;;;;;;;;;;;;;;;;;;
2022/06/07 02:13:47;;;;;;;51.63;44.60;;;;;;;35.75;47.19;101184.81;5072495;28;20456;-75
2022/06/07 02:16:28;;;;;;;62.37;45.97;;;;;;;35.71;47.30;101178.34;5069593;28;20421;-75
2022/06/07 02:19:06;;;;;;;56.60;43.33;;;;;;;35.71;47.73;101172.97;5070924;28;20432;-75
2022/06/07 02:21:38;;;;;;;53.60;39.90;;;;;;;35.93;47.12;101177.94;5071035;28;20467;-76
2022/06/07 02:24:24;;;;;;;64.23;46.20;;;;;;;35.98;46.93;101172.50;5071004;28;20527;-77
2022/06/07 02:27:15;;;;;;;55.50;45.10;;;;;;;35.96;46.74;101180.06;5050114;28;20481;-77
2022/06/07 02:29:54;;;;;;;57.23;42.80;;;;;;;35.86;46.79;101183.63;5070261;28;20522;-76
2022/06/07 02:32:51;;;;;;;54.07;44.20;;;;;;;35.83;46.65;101183.38;5070345;28;20531;-75
2022/06/07 02:35:23;;;;;;;51.37;44.23;;;;;;;36.02;46.88;101174.31;5050817;28;20432;-77
2022/06/07 02:38:08;;;;;;;57.63;48.13;;;;;;;35.83;47.04;101178.78;5070885;28;20494;-77
2022/06/07 02:40:35;;;;;;;64.17;45.47;;;;;;;35.81;46.83;101186.38;5070775;28;20427;-75
2022/06/07 02:43:24;;;;;;;52.17;47.87;;;;;;;35.60;47.30;101185.72;5070942;28;20418;-75
2022/06/07 02:46:11;;;;;;;56.77;40.90;;;;;;;35.64;47.55;101192.19;5071069;28;20574;-75
2022/06/07 02:48:46;;;;;;;55.50;42.93;;;;;;;35.50;47.51;101192.03;5070605;28;20421;-77
2022/06/07 02:51:35;;;;;;;49.50;41.47;;;;;;;35.39;47.97;101187.75;5061114;28;20559;-77
2022/06/07 02:54:10;;;;;;;54.87;40.80;;;;;;;35.38;48.34;101185.34;5058692;28;20413;-75
2022/06/07 02:56:55;;;;;;;57.87;41.43;;;;;;;35.30;48.04;101186.75;5070320;28;20425;-77
2022/06/07 02:59:35;;;;;;;52.13;40.17;;;;;;;35.31;48.50;101196.44;5070727;28;20838;-77
2022/06/07 03:02:11;;;;;;;54.13;39.60;;;;;;;35.38;48.02;101196.13;5070523;28;20479;-77
2022/06/07 03:04:48;;;;;;;52.40;45.37;;;;;;;35.34;48.20;101190.47;5070633;28;20547;-77
2022/06/07 03:07:38;;;;;;;58.03;43.43;;;;;;;35.32;48.19;101194.56;5070464;28;20456;-77
2022/06/07 03:10:11;;;;;;;61.23;45.40;;;;;;;35.16;48.81;101199.22;5071392;28;20483;-77
2022/06/07 03:12:38;;;;;;;50.23;41.63;;;;;;;35.25;48.38;101194.88;5070360;28;20837;-77
2022/06/07 03:15:11;;;;;;;49.33;42.30;;;;;;;35.21;48.31;101196.50;5070549;28;20424;-78
2022/06/07 03:17:53;;;;;;;58.20;42.83;;;;;;;35.21;48.95;101191.91;5069140;28;20433;-75
2022/06/07 03:20:31;;;;;;;50.03;37.57;;;;;;;35.25;48.57;101195.69;5073334;28;20428;-77
2022/06/07 03:23:07;;;;;;;58.33;44.63;;;;;;;35.42;48.36;101194.47;5073358;28;20478;-77
2022/06/07 03:25:47;;;;;;;75.50;48.97;;;;;;;35.56;47.35;101195.50;5074828;28;20432;-77
2022/06/07 03:28:19;;;;;;;82.17;66.80;;;;;;;35.42;48.16;101189.94;5049118;28;20524;-77
2022/06/07 03:34:13;;;;;;;48.17;35.30;;;;;;;35.59;47.77;101199.50;5034327;28;20550;-77
2022/06/07 03:36:45;;;;;;;35.90;27.77;;;;;;;35.78;47.15;101195.03;5047672;28;20441;-76
2022/06/07 03:39:16;;;;;;;46.57;34.13;;;;;;;35.74;46.73;101189.41;5073485;28;20943;-75
2022/06/07 03:41:42;;;;;;;49.53;32.10;;;;;;;35.74;47.47;101191.31;5074476;28;20417;-77
2022/06/07 03:44:20;;;;;;;47.73;31.93;;;;;;;35.74;46.86;101192.09;5055417;28;20420;-77
2022/06/07 03:46:55;;;;;;;36.57;27.53;;;;;;;35.55;47.70;101188.50;5065937;28;20445;-77
2022/06/07 03:49:31;;;;;;;42.17;28.17;;;;;;;35.63;47.75;101195.16;5072957;28;20935;-77
2022/06/07 03:52:07;;;;;;;30.43;23.70;;;;;;;35.66;47.27;101190.00;5073020;28;20456;-77
2022/06/07 03:55:06;;;;;;;31.00;26.40;;;;;;;35.65;47.26;101195.69;5073733;28;20437;-77
2022/06/07 03:57:58;;;;;;;32.40;26.33;;;;;;;35.63;47.32;101189.78;5073586;28;20466;-75
2022/06/07 04:00:41;;;;;;;44.83;27.60;;;;;;;35.67;47.15;101190.81;5072913;28;20426;-77
2022/06/07 04:03:10;;;;;;;39.93;27.83;;;;;;;35.64;47.19;101191.38;5073532;28;20422;-77
2022/06/07 04:05:43;;;;;;;35.77;26.73;;;;;;;35.59;47.64;101197.63;5072961;28;20418;-77
2022/06/07 04:08:15;;;;;;;35.60;28.57;;;;;;;35.70;47.02;101201.03;5062743;28;20446;-77
2022/06/07 04:11:11;;;;;;;37.60;26.83;;;;;;;35.65;47.46;101204.59;5056701;28;20943;-76
2022/06/07 04:13:46;;;;;;;34.93;26.57;;;;;;;35.45;47.55;101210.13;5073242;28;20457;-77
2022/06/07 04:16:48;;;;;;;40.73;29.83;;;;;;;35.58;47.51;101206.00;5073095;28;20425;-77
2022/06/07 04:19:17;;;;;;;49.80;34.57;;;;;;;35.60;47.31;101207.31;5072891;28;20471;-77
2022/06/07 04:22:05;;;;;;;41.87;34.97;;;;;;;35.61;46.86;101202.75;5073138;28;20444;-77
2022/06/07 04:24:42;;;;;;;44.43;34.20;;;;;;;35.65;47.04;101199.19;5072523;28;20432;-77
2022/06/07 04:27:25;;;;;;;46.50;31.73;;;;;;;35.59;47.47;101199.50;5073020;28;20506;-75
2022/06/07 04:32:58;;;;;;;35.47;25.83;;;;;;;35.61;47.12;101197.34;5049343;28;20991;-77
2022/06/07 04:35:30;;;;;;;40.83;26.47;;;;;;;35.57;46.91;101188.19;5072704;28;20433;-77
2022/06/07 04:38:01;;;;;;;34.13;26.50;;;;;;;35.62;46.54;101185.47;5072190;28;20424;-76
2022/06/07 04:40:54;;;;;;;54.70;39.07;;;;;;;35.32;47.73;101189.97;5073674;28;20421;-78
2022/06/07 04:46:35;;;;;;;40.97;30.40;;;;;;;35.40;47.22;101193.94;5073420;28;20433;-77
2022/06/07 04:49:19;;;;;;;38.80;27.87;;;;;;;35.49;47.08;101178.81;5070976;28;20943;-77
2022/06/07 04:51:53;;;;;;;39.20;25.97;;;;;;;35.49;46.85;101178.81;5071541;28;20496;-77
2022/06/07 04:54:26;;;;;;;35.70;30.47;;;;;;;35.51;47.03;101187.44;5071873;28;20498;-77
2022/06/07 04:57:04;;;;;;;38.47;30.37;;;;;;;35.45;47.32;101180.47;5072209;28;20421;-75
2022/06/07 04:59:35;;;;;;;43.23;28.23;;;;;;;35.42;47.45;101181.84;5072234;28;20993;-76
2022/06/07 05:02:37;;;;;;;35.00;23.63;;;;;;;35.42;47.45;101181.84;5071575;28;20799;-77
2022/06/07 05:05:56;;;;;;;39.70;26.27;;;;;;;35.47;46.73;101176.38;5062143;28;20939;-76
2022/06/07 05:08:26;;;;;;;34.00;24.60;;;;;;;35.61;46.94;101181.16;5056611;28;20417;-77
2022/06/07 05:10:54;;;;;;;32.53;24.37;;;;;;;35.51;46.98;101180.13;5072130;28;20445;-77
2022/06/07 05:13:21;;;;;;;33.83;22.50;;;;;;;35.38;47.15;101179.94;5073409;28;20479;-75
2022/06/07 05:16:16;;;;;;;28.80;22.70;;;;;;;35.29;47.20;101174.31;5071587;28;20437;-76
2022/06/07 05:18:57;;;;;;;31.23;21.93;;;;;;;35.30;47.46;101170.56;5055634;28;20471;-76
2022/06/07 05:21:34;;;;;;;39.40;21.00;;;;;;;35.19;47.31;101174.41;5046955;28;20461;-77
2022/06/07 05:24:34;;;;;;;29.77;22.13;;;;;;;35.05;47.89;101176.09;5071855;28;20509;-76
2022/06/07 05:27:23;;;;;;;37.10;24.33;;;;;;;35.16;47.64;101181.16;5071965;28;20533;-76
2022/06/07 05:30:10;;;;;;;33.50;24.17;;;;;;;35.24;47.60;101177.09;5071780;28;20491;-76
2022/06/07 05:32:43;;;;;;;34.07;22.60;;;;;;;35.21;47.23;101180.31;5071463;28;20839;-77
2022/06/07 05:35:26;;;;;;;41.80;28.67;;;;;;;35.16;46.99;101185.75;5051927;28;20445;-77
2022/06/07 05:38:05;;;;;;;35.37;24.47;;;;;;;34.98;47.54;101189.88;5051766;28;20480;-77
2022/06/07 05:40:36;;;;;;;35.00;23.47;;;;;;;34.89;48.07;101199.63;5051934;28;20435;-75
2022/06/07 05:46:18;;;;;;;30.80;25.53;;;;;;;35.06;47.58;101186.63;5052249;28;20436;-74
2022/06/07 05:48:49;;;;;;;38.43;26.23;;;;;;;35.26;47.40;101185.69;5050923;28;20517;-73
2022/06/07 05:54:54;;;;;;;39.50;27.23;;;;;;;35.08;47.65;101202.53;5030236;28;20512;-74
2022/06/07 06:00:29;;;;;;;40.40;28.50;;;;;;;35.37;46.59;101208.81;5051778;28;20407;-74
2022/06/07 06:03:02;;;;;;;39.43;29.47;;;;;;;35.17;47.59;101206.22;5031676;28;20474;-72
2022/06/07 06:05:31;;;;;;;39.07;27.90;;;;;;;35.15;46.82;101221.88;5043628;28;20419;-71
2022/06/07 06:11:24;;;;;;;35.00;26.63;;;;;;;35.26;46.70;101226.16;5051909;28;20564;-74
2022/06/07 06:13:55;;;;;;;33.50;25.23;;;;;;;35.35;46.84;101232.53;5050711;28;20443;-73
2022/06/07 06:16:38;;;;;;;;;;;;;;;;;;;;;
2022/06/07 06:19:16;;;;;;;;;;;;;;;;;;;;;
2022/06/07 06:21:54;;;;;;;35.93;26.63;;;;;;;35.39;46.44;101239.00;5020964;28;20415;-74
2022/06/07 06:24:23;;;;;;;39.57;29.33;;;;;;;35.45;46.50;101239.81;5030374;28;20419;-73
2022/06/07 06:30:01;;;;;;;39.73;31.70;;;;;;;35.04;47.22;101260.75;5031550;28;20434;-73
2022/06/07 06:32:45;;;;;;;;;;;;;;;;;;;;;
2022/06/07 06:35:34;;;;;;;40.50;30.67;;;;;;;35.11;47.79;101264.78;5031840;28;20439;-78
2022/06/07 06:38:06;;;;;;;33.50;27.17;;;;;;;35.35;46.94;101273.00;5019397;28;20432;-73
2022/06/07 06:40:41;;;;;;;39.73;27.37;;;;;;;35.62;46.62;101271.81;5009730;28;20431;-75
2022/06/07 06:43:20;;;;;;;43.90;29.70;;;;;;;35.69;46.51;101283.91;5011238;28;20930;-73
2022/06/07 06:46:06;;;;;;;;;;;;;;;;;;;;;
2022/06/07 06:48:32;;;;;;;36.93;29.63;;;;;;;35.74;46.01;101288.47;5031663;28;20771;-74
2022/06/07 06:51:08;;;;;;;49.40;32.30;;;;;;;35.67;46.10;101294.19;5030492;28;21072;-74
2022/06/07 06:53:46;;;;;;;56.20;35.90;;;;;;;35.65;46.43;101292.84;5030841;28;20451;-75
2022/06/07 06:56:23;;;;;;;47.23;32.67;;;;;;;35.49;46.85;101295.63;5034653;28;20477;-73
2022/06/07 07:01:52;;;;;;;48.37;30.50;;;;;;;35.29;47.19;101287.59;5035926;28;20407;-72
2022/06/07 07:04:22;;;;;;;53.90;35.50;;;;;;;34.78;48.28;101293.19;5033329;28;20522;-72
2022/06/07 07:06:55;;;;;;;43.97;34.33;;;;;;;34.78;48.79;101290.47;5034300;28;20432;-72
2022/06/07 07:09:44;;;;;;;43.97;34.60;;;;;;;34.84;48.74;101293.97;5032475;28;20419;-72
2022/06/07 07:12:19;;;;;;;50.63;35.63;;;;;;;35.20;47.86;101298.19;5033458;28;20983;-73
2022/06/07 10:08:21;;;;;;;33.63;19.27;;;;;;;37.40;42.43;101313.34;5049276;28;20448;-70
2022/06/07 10:15:01;;;;;;;23.10;17.87;;;;;;;37.49;43.20;101298.06;5052431;28;20514;-70
2022/06/07 12:30:55;;;;;;;17.80;13.60;;;;;;;38.05;40.21;101180.75;4957483;28;20558;-71
2022/06/07 12:36:46;;;;;;;20.60;13.10;;;;;;;38.05;40.85;101171.81;4920415;28;20412;-70
2022/06/07 12:39:15;;;;;;;20.70;14.30;;;;;;;38.00;40.45;101167.31;4935858;29;20420;-72
2022/06/07 12:42:07;;;;;;;22.17;15.10;;;;;;;38.04;40.49;101156.66;4927957;29;20420;-72
2022/06/07 12:44:43;;;;;;;24.80;13.90;;;;;;;38.07;40.25;101151.47;4922353;29;20491;-72
2022/06/07 12:47:36;;;;;;;19.33;13.73;;;;;;;38.08;40.71;101149.56;4919352;29;20447;-70
2022/06/07 12:50:36;;;;;;;26.30;14.97;;;;;;;38.22;40.65;101138.72;4919467;29;20438;-69
2022/06/07 12:53:02;;;;;;;16.63;11.53;;;;;;;38.24;40.57;101136.50;4919120;29;20486;-70
2022/06/07 12:55:34;;;;;;;20.63;14.20;;;;;;;38.27;40.48;101120.50;4936672;29;20430;-70
2022/06/07 12:58:18;;;;;;;21.50;14.20;;;;;;;38.27;40.64;101109.66;4952351;29;20427;-70
2022/06/07 13:00:47;;;;;;;18.63;14.53;;;;;;;38.41;39.57;101115.03;4948423;29;20489;-70
2022/06/07 13:03:32;;;;;;;20.30;14.70;;;;;;;38.37;39.29;101095.09;4954087;29;20423;-71
2022/06/07 13:06:08;;;;;;;25.63;14.80;;;;;;;38.29;39.82;101095.78;4943216;28;20454;-72
2022/06/07 13:08:37;;;;;;;21.03;14.20;;;;;;;38.33;41.14;101092.19;4936210;29;20753;-72
2022/06/07 13:11:10;;;;;;;18.60;13.80;;;;;;;38.42;40.11;101093.06;4958425;28;20938;-72
2022/06/07 13:13:39;;;;;;;20.47;14.80;;;;;;;38.42;40.39;101087.63;4955863;29;20458;-72
2022/06/07 13:16:11;;;;;;;19.73;14.13;;;;;;;38.48;40.39;101088.31;4941999;28;20872;-72
2022/06/07 13:19:00;;;;;;;20.87;17.20;;;;;;;38.37;40.24;101081.53;4937612;29;20542;-71
2022/06/07 13:21:32;;;;;;;26.80;13.80;;;;;;;38.49;40.03;101084.53;4937826;29;20427;-71
2022/06/07 13:23:59;;;;;;;21.17;14.30;;;;;;;38.51;39.68;101076.09;4937822;29;20575;-70
2022/06/07 13:26:27;;;;;;;23.93;14.20;;;;;;;38.54;40.16;101080.88;4937665;29;20430;-70
2022/06/07 13:29:26;;;;;;;18.20;13.30;;;;;;;38.60;40.02;101074.25;4937566;29;20434;-69
2022/06/07 13:31:59;;;;;;;29.73;17.33;;;;;;;38.72;39.82;101062.91;4945328;28;20563;-71
2022/06/07 13:34:31;;;;;;;21.27;14.80;;;;;;;38.72;40.44;101066.41;4956693;28;20434;-68
2022/06/07 13:37:04;;;;;;;18.27;14.33;;;;;;;38.70;39.17;101058.56;4956479;28;20454;-70
2022/06/07 13:39:30;;;;;;;18.67;14.03;;;;;;;38.72;39.63;101065.59;4945603;29;20933;-71
2022/06/07 13:42:18;;;;;;;21.77;14.97;;;;;;;38.73;39.96;101054.44;4968085;28;20450;-71
2022/06/07 13:45:10;;;;;;;19.13;13.67;;;;;;;38.74;40.40;101047.13;4947063;28;20521;-71
2022/06/07 13:47:44;;;;;;;17.70;14.33;;;;;;;38.74;40.31;101039.81;4948977;28;20804;-70
2022/06/07 13:55:51;;;;;;;18.63;15.40;;;;;;;38.75;40.29;101019.72;4974033;28;20908;-70
2022/06/07 13:58:21;;;;;;;20.73;15.70;;;;;;;38.87;40.00;101008.31;4956330;28;20453;-69
2022/06/07 14:00:48;;;;;;;23.93;17.10;;;;;;;38.97;40.11;101014.25;4956253;28;20430;-70
2022/06/07 14:03:25;;;;;;;20.23;13.63;;;;;;;38.96;40.00;100995.59;4955792;28;20955;-71
2022/06/07 14:05:51;;;;;;;20.20;14.30;;;;;;;39.04;39.84;100991.31;4956122;28;20544;-71
2022/06/07 14:08:18;;;;;;;25.30;15.23;;;;;;;38.97;40.43;100992.56;4972283;28;20437;-70
2022/06/07 14:10:45;;;;;;;19.43;14.17;;;;;;;38.89;40.22;100973.53;4956098;28;20441;-69
2022/06/07 14:13:12;;;;;;;18.80;14.43;;;;;;;39.01;40.13;100975.69;4955934;28;20477;-70
2022/06/07 14:15:38;;;;;;;25.87;16.90;;;;;;;39.00;40.45;100969.47;4956090;28;20450;-71
2022/06/07 14:18:08;;;;;;;17.30;13.13;;;;;;;39.07;40.06;100955.44;4956032;28;20452;-69
2022/06/07 14:20:37;;;;;;;24.00;14.37;;;;;;;38.99;40.27;100950.78;4972144;28;20430;-69
2022/06/07 14:23:04;;;;;;;21.20;14.93;;;;;;;39.02;40.55;100950.16;4956035;28;20426;-70
2022/06/07 14:25:31;;;;;;;18.13;12.50;;;;;;;38.94;39.58;100943.56;4955914;28;20419;-70
2022/06/07 14:27:57;;;;;;;18.60;11.73;;;;;;;38.86;40.33;100947.84;4972622;28;20398;-70
2022/06/07 14:30:24;;;;;;;21.50;13.20;;;;;;;38.80;39.59;100940.16;4969301;28;20414;-71
2022/06/07 14:32:53;;;;;;;16.30;12.40;;;;;;;38.81;39.77;100944.47;4956072;28;20856;-68
2022/06/07 14:35:22;;;;;;;18.43;13.80;;;;;;;38.79;39.35;100950.19;4956509;28;20430;-66
2022/06/07 14:37:50;;;;;;;22.80;14.00;;;;;;;38.89;40.30;100943.69;4966702;28;20428;-69
2022/06/07 14:40:22;;;;;;;15.67;12.47;;;;;;;38.90;39.23;100937.97;4981884;28;20950;-69
2022/06/07 14:42:49;;;;;;;18.13;12.13;;;;;;;39.08;38.92;100938.06;4975139;28;20415;-67
2022/06/07 14:45:18;;;;;;;18.40;14.67;;;;;;;39.20;38.78;100941.81;4958581;28;20484;-70
2022/06/07 14:47:47;;;;;;;19.30;13.50;;;;;;;39.22;38.49;100942.28;4956304;28;20434;-69
2022/06/07 14:50:17;;;;;;;17.30;12.17;;;;;;;39.20;38.88;100935.59;4956184;28;20434;-70
2022/06/07 14:52:48;;;;;;;27.77;16.53;;;;;;;39.10;39.58;100931.22;4972267;28;20986;-70
2022/06/07 14:55:18;;;;;;;27.37;15.47;;;;;;;39.05;39.42;100925.13;4954356;28;20429;-68
2022/06/07 14:57:47;;;;;;;22.43;14.60;;;;;;;39.09;39.32;100920.66;4954415;28;20948;-69
2022/06/07 15:00:18;;;;;;;21.73;13.00;;;;;;;39.21;38.81;100929.84;4954489;28;20427;-71
2022/06/07 15:02:53;;;;;;;17.87;14.77;;;;;;;39.31;39.17;100925.25;4954452;28;20418;-70
2022/06/07 15:05:25;;;;;;;22.10;14.13;;;;;;;39.36;38.62;100925.91;4954379;28;20449;-71
2022/06/07 15:08:07;;;;;;;26.27;13.87;;;;;;;39.23;38.98;100927.63;4954402;28;20433;-71
2022/06/07 15:10:39;;;;;;;20.87;13.90;;;;;;;39.26;39.13;100928.09;4972193;28;20434;-70
2022/06/07 15:13:28;;;;;;;23.73;16.63;;;;;;;39.25;39.59;100932.72;4956052;28;20887;-70
2022/06/07 15:16:04;;;;;;;23.47;12.60;;;;;;;39.19;39.92;100940.22;4958896;28;20454;-70
2022/06/07 15:18:36;;;;;;;25.83;14.73;;;;;;;39.28;39.92;100940.22;4959843;28;20414;-68
2022/06/07 15:21:02;;;;;;;23.20;14.37;;;;;;;39.38;39.23;100939.97;4959877;28;20505;-69
2022/06/07 15:23:28;;;;;;;18.70;15.77;;;;;;;39.11;39.37;100940.16;4959770;28;20410;-70
2022/06/07 15:25:54;;;;;;;19.90;14.07;;;;;;;38.90;40.37;100935.25;4959520;28;20418;-70
2022/06/07 15:28:22;;;;;;;17.67;12.60;;;;;;;38.99;39.70;100937.22;4959616;28;20481;-68
2022/06/07 15:30:50;;;;;;;23.03;15.83;;;;;;;38.94;39.60;100930.81;4959549;28;20534;-68
2022/06/07 15:33:19;;;;;;;16.13;13.13;;;;;;;39.06;39.87;100932.94;4957569;28;20485;-69
2022/06/07 15:35:46;;;;;;;20.10;14.33;;;;;;;39.12;39.69;100947.97;4959649;28;20414;-68
2022/06/07 15:38:16;;;;;;;20.80;13.20;;;;;;;39.25;39.83;100940.06;4959409;28;20983;-69
2022/06/07 15:40:42;;;;;;;25.23;12.47;;;;;;;39.36;40.22;100938.69;4959514;28;20936;-69
2022/06/07 15:43:11;;;;;;;16.27;11.90;;;;;;;39.31;39.80;100938.81;4959285;28;20418;-69
2022/06/07 15:45:41;;;;;;;22.27;13.10;;;;;;;39.49;38.94;100937.75;4959452;28;20809;-68
2022/06/07 15:48:11;;;;;;;22.47;13.30;;;;;;;39.45;38.38;100934.88;4959294;28;20422;-68
2022/06/07 15:50:44;;;;;;;20.87;13.43;;;;;;;39.45;38.06;100934.88;4959347;28;20916;-69
2022/06/07 15:53:11;;;;;;;19.63;12.83;;;;;;;39.59;37.71;100926.59;4943910;28;20481;-69
2022/06/07 15:55:37;;;;;;;23.20;13.30;;;;;;;39.56;38.09;100921.00;4977095;28;20485;-69
2022/06/07 16:00:48;;;;;;;21.23;14.27;;;;;;;39.41;38.97;100923.06;4976955;28;20460;-69
2022/06/07 16:03:15;;;;;;;19.37;13.47;;;;;;;39.40;38.89;100928.78;4959097;28;20561;-69
2022/06/07 16:05:42;;;;;;;22.97;12.70;;;;;;;39.55;38.70;100928.34;4959082;28;20442;-69
2022/06/07 16:08:10;;;;;;;22.27;13.53;;;;;;;39.54;38.89;100929.47;4943168;28;20450;-69
2022/06/07 16:10:38;;;;;;;21.97;14.47;;;;;;;39.60;39.29;100928.25;4958896;28;20429;-69
2022/06/07 16:13:06;;;;;;;18.70;12.00;;;;;;;39.67;38.45;100931.28;4958914;28;20478;-69
2022/06/07 16:15:32;;;;;;;24.83;14.57;;;;;;;39.63;39.31;100924.88;4958891;28;20425;-69
2022/06/07 16:18:00;;;;;;;24.13;12.40;;;;;;;39.69;39.05;100918.19;4958773;28;20844;-69
2022/06/07 16:20:26;;;;;;;26.63;12.63;;;;;;;39.65;38.11;100914.50;4958823;28;20418;-69
2022/06/07 16:22:53;;;;;;;19.10;11.73;;;;;;;39.73;37.57;100913.72;4976356;28;20414;-68
2022/06/07 16:25:19;;;;;;;20.43;12.20;;;;;;;39.70;38.04;100905.41;4958328;28;20953;-69
2022/06/07 16:33:21;;;;;;;16.77;12.27;;;;;;;39.58;38.44;100922.28;4975565;28;20851;-69
2022/06/07 16:35:59;;;;;;;22.27;14.23;;;;;;;39.57;38.61;100928.81;4974668;28;20426;-69
2022/06/07 16:38:30;;;;;;;17.20;12.70;;;;;;;39.61;38.70;100935.28;4958433;28;20988;-69
2022/06/07 16:40:57;;;;;;;21.97;14.70;;;;;;;39.59;38.55;100932.03;4958436;28;20418;-69
2022/06/07 16:46:10;;;;;;;19.97;12.03;;;;;;;39.58;39.12;100941.28;4966821;28;20457;-68
2022/06/07 16:48:40;;;;;;;16.73;12.37;;;;;;;39.67;38.91;100944.06;4956534;28;20431;-69
2022/06/07 16:51:09;;;;;;;19.80;14.03;;;;;;;39.65;38.55;100941.66;4955286;28;20456;-72
2022/06/07 16:53:35;;;;;;;22.07;12.77;;;;;;;39.61;38.76;100951.56;4956009;28;21074;-68
2022/06/07 16:56:01;;;;;;;19.87;14.30;;;;;;;39.65;38.63;100959.84;4970298;28;20414;-73
2022/06/07 16:58:27;;;;;;;16.93;12.90;;;;;;;39.65;38.90;100952.50;4957993;28;20979;-72
2022/06/07 17:00:54;;;;;;;25.53;13.47;;;;;;;39.59;39.01;100951.03;4958010;28;20422;-69
2022/06/07 17:03:21;;;;;;;23.17;15.40;;;;;;;39.48;39.32;100953.25;4957855;28;20442;-73
2022/06/07 17:05:48;;;;;;;20.10;11.43;;;;;;;39.58;39.17;100965.72;4956521;28;20517;-72
2022/06/07 17:08:18;;;;;;;17.77;12.80;;;;;;;39.42;39.62;100953.72;4965429;28;20462;-73
2022/06/07 17:10:45;;;;;;;21.80;12.33;;;;;;;39.33;39.46;100967.22;4963662;28;20908;-72
2022/06/07 17:13:12;;;;;;;19.13;12.20;;;;;;;39.37;39.72;100965.50;4962000;28;20501;-75
2022/06/07 17:15:39;;;;;;;20.03;13.57;;;;;;;39.33;39.67;100967.22;4975158;28;20440;-75
2022/06/07 17:18:06;;;;;;;24.87;13.40;;;;;;;39.31;39.69;100971.38;4936859;28;20494;-70
2022/06/07 17:20:32;;;;;;;22.57;14.97;;;;;;;39.21;39.59;100977.88;4951653;28;20434;-69
2022/06/07 17:22:59;;;;;;;18.23;14.30;;;;;;;39.14;40.16;100988.34;4958337;28;20415;-78
2022/06/07 17:25:26;;;;;;;21.13;13.27;;;;;;;39.05;40.36;100991.03;4962455;28;20521;-74
2022/06/07 17:27:52;;;;;;;21.57;14.00;;;;;;;39.06;40.54;100992.63;4963797;28;20411;-75
2022/06/07 17:30:19;;;;;;;23.10;14.97;;;;;;;38.92;40.38;100992.72;4953113;28;20433;-77
2022/06/07 17:32:45;;;;;;;21.57;15.40;;;;;;;38.96;40.57;100990.97;4939808;28;20479;-70
2022/06/07 17:35:14;;;;;;;24.53;16.53;;;;;;;39.00;40.48;101001.22;4946970;28;20430;-70
2022/06/07 17:37:40;;;;;;;21.27;15.00;;;;;;;39.02;40.32;100997.06;4946354;28;20450;-74
2022/06/07 17:40:10;;;;;;;25.37;14.57;;;;;;;39.02;40.22;100988.13;4945092;28;20502;-72
2022/06/07 17:42:39;;;;;;;20.10;13.67;;;;;;;38.91;40.08;100987.56;4943885;29;20473;-70
2022/06/07 17:45:07;;;;;;;28.63;12.57;;;;;;;38.84;40.26;100993.44;4938057;29;20431;-72
2022/06/07 17:47:34;;;;;;;21.17;15.67;;;;;;;38.78;40.55;100997.38;4937966;29;20992;-71
2022/06/07 17:50:00;;;;;;;24.00;14.20;;;;;;;38.75;40.21;100994.50;4937900;29;20481;-69
2022/06/07 17:52:29;;;;;;;20.97;14.47;;;;;;;38.80;40.41;100997.91;4937713;29;20471;-69
2022/06/07 17:54:55;;;;;;;20.77;14.20;;;;;;;38.68;40.73;101000.34;4937886;29;20816;-69
2022/06/07 17:57:21;;;;;;;27.90;15.90;;;;;;;38.73;40.85;101002.94;4968439;28;20454;-69
2022/06/07 17:59:47;;;;;;;25.70;14.50;;;;;;;38.72;40.00;101005.97;4973122;28;20431;-69